Kingston, GA (30145)

08:43 PM EST em 01 de Fevereiro de 2015 (GMT -0500)
Cartersville | Change Station
CLOSE
Current Station
Aeroporto
Location: Cartersville,
Altitude: 764 ft
Estações Meteorológicas Próximas

Elev 764 ft 34.12 °N, 84.85 °W | Updated 11 minutes ago

Chuva
Chuva
55 °F
Aparente 55 °F
N
8
Vento Variável Vento de Sul
Gusts 16 mph

Hoje
Máxima -- | Mínima -- °F
--% Possibilidade de Precip.
Ontem
Máxima -- | Mínima -- °F
Precip. -- pol
7:37 AM 6:09 PM
Lua crescente, 97% visible
Pressão 29.84 pol
Visibilidade 8.0 milhas
Nuvens Muito Nublado 1400 ft
Céu Encoberto 2000 ft
Ponto de Orvalho 52 °F
Humidade 89%
Chuva 0.19 pol
Altura de Neve Não disponível
UV 0 em vez de 12
Pólen 3.70 em vez de 12
Qualidade do Ar Não disponível
Flu Activity Não disponível
SPECI KVPC 020132Z AUTO 18007G14KT 8SM BKN014 OVC020 13/11 A2984 RMK AO2 RAE28 P0003 T01280111

More Conditions Fewer Conditions

Pressão 29.84 pol
Visibilidade 8.0 milhas
Nuvens Muito Nublado 1400 ft
Céu Encoberto 2000 ft
Ponto de Orvalho 52 °F
Humidade 89%
Chuva 0.19 pol
Altura de Neve Não disponível
UV 0 em vez de 12
Pólen 3.70 em vez de 12
Qualidade do Ar Não disponível
Flu Activity Não disponível
SPECI KVPC 020132Z AUTO 18007G14KT 8SM BKN014 OVC020 13/11 A2984 RMK AO2 RAE28 P0003 T01280111

More Conditions Fewer Conditions

10-Day Weather Forecast

Almanac

Astronomia

Feb. 01, 2015 Nascer Pôr
Hora atual
Crepúsculo civil
Crepúsculo náutico
Crepúsculo astronómico
Lua
Comprimento da luz visível
Duração do Dia
Tomorrow will be .
, % of the Moon is Illuminated

Extremos de Hoje

situação na parte mais alta situação na parte mais baixa

Community

WunderPhotos

Upload Photos

1,792,652 fotografias inseridas!

WunderBlogs® & News

Nearby

Qualidade do Ar

  Qualidade do Ar Índice da Q.A. Poluente
Not available.

Altura da Neve

Estação altura Altitude

Actividade Sísmisca

Cidade Distância Mag. Hora & Data
Mínima magnitude apresentada é 2.5.

Temperaturas das Águas Costeiras

Local Temperatura

Estações Meteorológicas Próximas